createdAt,value
2022-08-21T00:01:08.151Z,100.00
2022-08-21T00:03:36.189Z,100.00
2022-08-21T00:06:04.995Z,100.00
2022-08-21T00:08:33.072Z,100.00
2022-08-21T00:11:01.074Z,100.00
2022-08-21T00:13:30.570Z,100.00
2022-08-21T00:15:59.083Z,100.00
2022-08-21T00:18:27.705Z,100.00
2022-08-21T00:20:55.780Z,100.00
2022-08-21T00:23:23.928Z,100.00
2022-08-21T00:25:52.006Z,100.00
2022-08-21T00:28:20.665Z,100.00
2022-08-21T00:30:50.073Z,100.00
2022-08-21T00:33:18.213Z,100.00
2022-08-21T00:35:46.292Z,100.00
2022-08-21T00:38:15.417Z,100.00
2022-08-21T00:40:46.409Z,100.00
2022-08-21T00:43:17.171Z,100.00
2022-08-21T00:45:45.638Z,100.00
2022-08-21T00:48:15.278Z,100.00
2022-08-21T00:50:50.467Z,100.00
2022-08-21T00:53:19.568Z,100.00
2022-08-21T00:55:48.665Z,100.00
2022-08-21T00:58:18.839Z,100.00
2022-08-21T01:00:51.446Z,100.00
2022-08-21T01:03:25.280Z,100.00
2022-08-21T01:05:54.996Z,100.00
2022-08-21T01:08:24.169Z,100.00
2022-08-21T01:10:54.719Z,100.00
2022-08-21T01:13:28.416Z,100.00
2022-08-21T01:16:00.217Z,100.00
2022-08-21T01:18:30.247Z,100.00
2022-08-21T01:21:07.820Z,100.00
2022-08-21T01:23:36.821Z,100.00
2022-08-21T01:26:05.767Z,100.00
2022-08-21T01:28:39.389Z,100.00
2022-08-21T01:31:10.310Z,100.00
2022-08-21T01:33:39.053Z,100.00
2022-08-21T01:36:09.260Z,100.00
2022-08-21T01:38:37.272Z,100.00
2022-08-21T01:41:05.410Z,100.00
2022-08-21T01:43:39.128Z,100.00
2022-08-21T01:46:08.288Z,100.00
2022-08-21T01:48:36.829Z,100.00
2022-08-21T01:51:06.108Z,100.00
2022-08-21T01:53:37.713Z,100.00
2022-08-21T01:56:12.245Z,100.00
2022-08-21T01:58:41.192Z,100.00
2022-08-21T02:01:10.385Z,100.00
2022-08-21T02:03:39.202Z,100.00
2022-08-21T02:06:08.808Z,100.00
2022-08-21T02:08:38.149Z,100.00
2022-08-21T02:11:06.165Z,100.00
2022-08-21T02:13:34.146Z,100.00
2022-08-21T02:16:02.133Z,100.00
2022-08-21T02:18:30.591Z,100.00
2022-08-21T02:20:58.774Z,100.00
2022-08-21T02:23:27.674Z,100.00
2022-08-21T02:25:58.606Z,100.00
2022-08-21T02:28:27.652Z,100.00
2022-08-21T02:30:57.656Z,100.00
2022-08-21T02:33:26.096Z,100.00
2022-08-21T02:35:55.296Z,100.00
2022-08-21T02:38:25.891Z,100.00
2022-08-21T02:40:55.439Z,100.00
2022-08-21T02:43:27.709Z,100.00
2022-08-21T02:45:57.309Z,100.00
2022-08-21T02:48:27.812Z,100.00
2022-08-21T02:50:58.278Z,100.00
2022-08-21T02:53:27.333Z,100.00
2022-08-21T02:55:56.194Z,100.00
2022-08-21T02:58:27.471Z,100.00
2022-08-21T03:00:55.954Z,100.00
2022-08-21T03:03:24.054Z,100.00
2022-08-21T03:05:53.030Z,100.00
2022-08-21T03:08:21.535Z,100.00
2022-08-21T03:10:54.051Z,100.00
2022-08-21T03:13:23.085Z,100.00
2022-08-21T03:15:52.557Z,100.00
2022-08-21T03:18:21.003Z,100.00
2022-08-21T03:20:49.670Z,100.00
2022-08-21T03:23:19.552Z,100.00
2022-08-21T03:25:49.283Z,100.00
2022-08-21T03:28:20.625Z,100.00
2022-08-21T03:30:51.014Z,100.00
2022-08-21T03:33:23.371Z,100.00
2022-08-21T03:35:59.715Z,100.00
2022-08-21T03:38:29.079Z,100.00
2022-08-21T03:40:57.374Z,100.00
2022-08-21T03:43:25.521Z,100.00
2022-08-21T03:45:53.778Z,100.00
2022-08-21T03:48:23.334Z,100.00
2022-08-21T03:50:55.002Z,100.00
2022-08-21T03:53:23.119Z,100.00
2022-08-21T03:55:53.438Z,100.00
2022-08-21T03:58:24.134Z,100.00
2022-08-21T04:00:54.847Z,100.00
2022-08-21T04:03:24.602Z,100.00
2022-08-21T04:05:52.890Z,100.00
2022-08-21T04:08:21.278Z,100.00
2022-08-21T04:10:52.312Z,100.00
2022-08-21T04:13:20.471Z,100.00
2022-08-21T04:15:48.773Z,100.00
2022-08-21T04:18:17.061Z,100.00
2022-08-21T04:20:50.485Z,100.00
2022-08-21T04:23:24.054Z,100.00
2022-08-21T04:25:53.010Z,100.00
2022-08-21T04:28:21.191Z,100.00
2022-08-21T04:30:52.787Z,100.00
2022-08-21T04:33:20.948Z,100.00
2022-08-21T04:35:51.158Z,100.00
2022-08-21T04:38:19.453Z,100.00
2022-08-21T04:40:47.717Z,100.00
2022-08-21T04:43:15.882Z,100.00
2022-08-21T04:45:48.538Z,100.00
2022-08-21T04:48:18.659Z,100.00
2022-08-21T04:50:52.148Z,100.00
2022-08-21T04:53:24.186Z,100.00
2022-08-21T04:55:54.502Z,100.00
2022-08-21T04:58:24.413Z,100.00
2022-08-21T05:00:54.177Z,100.00
2022-08-21T05:03:22.584Z,100.00
2022-08-21T05:05:52.415Z,100.00
2022-08-21T05:08:24.097Z,100.00
2022-08-21T05:10:54.950Z,100.00
2022-08-21T05:13:25.174Z,100.00
2022-08-21T05:15:53.442Z,100.00
2022-08-21T05:18:21.505Z,100.00
2022-08-21T05:20:50.035Z,100.00
2022-08-21T05:23:19.374Z,100.00
2022-08-21T05:25:47.476Z,100.00
2022-08-21T05:28:16.778Z,100.00
2022-08-21T05:30:44.783Z,100.00
2022-08-21T05:33:13.125Z,100.00
2022-08-21T05:35:41.606Z,100.00
2022-08-21T05:38:16.752Z,100.00
2022-08-21T05:40:48.346Z,100.00
2022-08-21T05:43:16.854Z,100.00
2022-08-21T05:45:44.993Z,100.00
2022-08-21T05:48:16.021Z,100.00
2022-08-21T05:50:45.886Z,100.00
2022-08-21T05:53:14.904Z,100.00
2022-08-21T05:55:46.206Z,100.00
2022-08-21T05:58:17.521Z,100.00
2022-08-21T06:00:48.439Z,100.00
2022-08-21T06:03:18.918Z,100.00
2022-08-21T06:05:47.646Z,100.00
2022-08-21T06:08:17.031Z,100.00
2022-08-21T06:10:45.349Z,100.00
2022-08-21T06:13:14.208Z,100.00
2022-08-21T06:15:43.882Z,100.00
2022-08-21T06:18:12.431Z,100.00
2022-08-21T06:20:40.711Z,100.00
2022-08-21T06:23:09.410Z,100.00
2022-08-21T06:25:37.734Z,100.00
2022-08-21T06:28:07.524Z,100.00
2022-08-21T06:30:36.938Z,100.00
2022-08-21T06:33:07.599Z,100.00
2022-08-21T06:35:36.674Z,100.00
2022-08-21T06:38:08.464Z,100.00
2022-08-21T06:40:36.532Z,100.00
2022-08-21T06:43:15.183Z,100.00
2022-08-21T06:45:44.050Z,100.00
2022-08-21T06:48:18.370Z,100.00
2022-08-21T06:50:48.134Z,100.00
2022-08-21T06:53:18.253Z,98.78
2022-08-21T06:55:46.477Z,95.68
2022-08-21T06:58:15.247Z,95.04
2022-08-21T07:00:46.474Z,94.76
2022-08-21T07:03:26.071Z,82.48
2022-08-21T07:05:54.063Z,88.80
2022-08-21T07:08:23.015Z,87.07
2022-08-21T07:10:51.448Z,87.17
2022-08-21T07:13:20.395Z,82.93
2022-08-21T07:15:48.593Z,82.29
2022-08-21T07:18:16.981Z,80.95
2022-08-21T07:20:46.705Z,77.02
2022-08-21T07:23:23.801Z,72.11
2022-08-21T07:25:52.131Z,70.61
2022-08-21T07:28:20.543Z,69.45
2022-08-21T07:30:53.625Z,72.91
2022-08-21T07:33:21.731Z,72.18
2022-08-21T07:35:51.120Z,64.96
2022-08-21T07:38:20.020Z,62.30
2022-08-21T07:40:48.936Z,65.55
2022-08-21T07:43:17.797Z,58.31
2022-08-21T07:45:46.455Z,55.34
2022-08-21T07:48:14.498Z,55.88
2022-08-21T07:50:43.514Z,56.56
2022-08-21T07:53:13.069Z,56.26
2022-08-21T07:55:41.271Z,53.85
2022-08-21T07:58:09.278Z,56.91
2022-08-21T08:00:37.454Z,53.19
2022-08-21T08:03:05.551Z,52.56
2022-08-21T08:05:38.029Z,51.73
2022-08-21T08:08:06.007Z,49.08
2022-08-21T08:10:36.062Z,48.90
2022-08-21T08:13:04.511Z,52.87
2022-08-21T08:15:37.397Z,49.59
2022-08-21T08:18:06.216Z,49.66
2022-08-21T08:20:34.310Z,46.78
2022-08-21T08:23:02.582Z,47.86
2022-08-21T08:25:36.269Z,45.22
2022-08-21T08:28:16.643Z,47.69
2022-08-21T08:30:46.627Z,46.19
2022-08-21T08:33:15.429Z,44.31
2022-08-21T08:35:44.958Z,45.09
2022-08-21T08:38:13.156Z,46.41
2022-08-21T08:40:46.014Z,44.68
2022-08-21T08:43:16.029Z,42.08
2022-08-21T08:45:47.662Z,43.92
2022-08-21T08:48:23.668Z,43.42
2022-08-21T08:50:56.253Z,42.92
2022-08-21T08:53:29.973Z,41.52
2022-08-21T08:55:59.457Z,44.64
2022-08-21T08:58:31.304Z,42.65
2022-08-21T09:00:59.985Z,41.97
2022-08-21T09:03:29.399Z,42.04
2022-08-21T09:06:05.649Z,39.17
2022-08-21T09:08:52.366Z,38.41
2022-08-21T09:11:29.811Z,38.50
2022-08-21T09:14:10.354Z,40.08
2022-08-21T09:16:56.073Z,42.84
2022-08-21T09:19:37.819Z,41.40
2022-08-21T09:22:29.371Z,41.36
2022-08-21T09:25:10.974Z,37.65
2022-08-21T09:27:39.137Z,35.74
2022-08-21T09:30:10.814Z,36.49
2022-08-21T09:32:42.263Z,37.66
2022-08-21T09:35:14.078Z,37.73
2022-08-21T09:37:54.000Z,36.13
2022-08-21T09:40:31.658Z,33.28
2022-08-21T09:43:03.121Z,32.94
2022-08-21T09:45:34.193Z,33.59
2022-08-21T09:48:17.232Z,32.29
2022-08-21T09:50:46.140Z,32.96
2022-08-21T09:53:20.221Z,31.09
2022-08-21T09:56:11.772Z,33.03
2022-08-21T09:58:42.326Z,28.14
2022-08-21T10:01:17.370Z,29.24
2022-08-21T10:03:45.966Z,30.79
2022-08-21T10:06:24.949Z,32.08
2022-08-21T10:08:53.413Z,32.36
2022-08-21T10:11:29.519Z,29.51
2022-08-21T10:14:05.797Z,31.35
2022-08-21T10:16:44.188Z,28.99
2022-08-21T10:19:20.167Z,28.87
2022-08-21T10:22:01.703Z,29.89
2022-08-21T10:24:33.583Z,29.65
2022-08-21T10:27:16.683Z,28.89
2022-08-21T10:29:54.035Z,30.54
2022-08-21T10:32:45.786Z,30.64
2022-08-21T10:35:16.467Z,28.15
2022-08-21T10:37:58.990Z,28.88
2022-08-21T10:40:31.301Z,29.69
2022-08-21T10:43:14.694Z,31.37
2022-08-21T10:45:53.883Z,28.31
2022-08-21T10:48:29.933Z,28.56
2022-08-21T10:51:06.119Z,28.12
2022-08-21T10:53:45.850Z,26.11
2022-08-21T10:56:19.100Z,26.43
2022-08-21T10:59:02.222Z,26.40
2022-08-21T11:01:34.379Z,26.47
2022-08-21T11:04:14.327Z,28.58
2022-08-21T11:06:48.350Z,28.66
2022-08-21T11:09:19.412Z,28.76
2022-08-21T11:11:59.358Z,28.37
2022-08-21T11:14:56.365Z,27.58
2022-08-21T11:17:33.973Z,27.33
2022-08-21T11:20:09.816Z,25.84
2022-08-21T11:22:46.169Z,24.71
2022-08-21T11:25:23.127Z,24.17
2022-08-21T11:28:14.228Z,22.66
2022-08-21T11:30:59.986Z,23.31
2022-08-21T11:33:43.119Z,22.30
2022-08-21T11:36:20.170Z,23.73
2022-08-21T11:38:56.064Z,23.61
2022-08-21T11:41:30.927Z,24.82
2022-08-21T11:44:11.691Z,25.72
2022-08-21T11:46:56.372Z,24.12
2022-08-21T11:49:41.987Z,24.70
2022-08-21T11:52:19.378Z,25.11
2022-08-21T11:54:51.931Z,25.16
2022-08-21T11:57:23.248Z,24.36
2022-08-21T11:59:58.448Z,23.31
2022-08-21T12:02:31.939Z,23.51
2022-08-21T12:05:08.169Z,22.93
2022-08-21T12:07:41.765Z,22.23
2022-08-21T12:10:13.351Z,23.19
2022-08-21T12:12:43.975Z,23.88
2022-08-21T12:15:27.879Z,23.27
2022-08-21T12:17:59.905Z,22.80
2022-08-21T12:20:39.147Z,23.14
2022-08-21T12:23:29.666Z,23.57
2022-08-21T12:26:22.417Z,23.57
2022-08-21T12:28:50.638Z,25.23
2022-08-21T12:31:26.150Z,24.84
2022-08-21T12:33:58.497Z,24.56
2022-08-21T12:36:40.240Z,25.44
2022-08-21T12:39:15.584Z,23.31
2022-08-21T12:41:49.129Z,24.10
2022-08-21T12:44:19.519Z,24.28
2022-08-21T12:46:52.566Z,24.89
2022-08-21T12:49:28.135Z,27.42
2022-08-21T12:51:59.922Z,26.50
2022-08-21T12:54:32.313Z,26.31
2022-08-21T12:57:02.659Z,25.68
2022-08-21T12:59:31.609Z,24.96
2022-08-21T13:02:02.661Z,24.57
2022-08-21T13:04:38.285Z,23.94
2022-08-21T13:07:11.969Z,24.48
2022-08-21T13:09:49.639Z,23.91
2022-08-21T13:12:19.289Z,24.34
2022-08-21T13:14:48.837Z,24.45
2022-08-21T13:17:23.453Z,25.29
2022-08-21T13:20:00.195Z,24.08
2022-08-21T13:22:34.220Z,23.30
2022-08-21T13:25:11.374Z,22.68
2022-08-21T13:27:39.462Z,22.39
2022-08-21T13:30:14.951Z,23.32
2022-08-21T13:32:48.069Z,21.99
2022-08-21T13:35:19.037Z,21.16
2022-08-21T13:37:49.228Z,22.96
2022-08-21T13:40:22.278Z,23.87
2022-08-21T13:42:50.779Z,21.74
2022-08-21T13:45:26.307Z,24.12
2022-08-21T13:47:55.593Z,23.30
2022-08-21T13:50:27.597Z,23.87
2022-08-21T13:53:00.420Z,22.73
2022-08-21T13:55:40.244Z,22.63
2022-08-21T13:58:09.311Z,23.12
2022-08-21T14:00:45.316Z,23.38
2022-08-21T14:03:30.481Z,23.14
2022-08-21T14:06:00.375Z,21.82
2022-08-21T14:08:34.211Z,21.95
2022-08-21T14:11:06.330Z,21.63
2022-08-21T14:13:42.217Z,23.35
2022-08-21T14:16:17.849Z,23.32
2022-08-21T14:18:48.362Z,22.78
2022-08-21T14:21:29.220Z,22.99
2022-08-21T14:24:10.725Z,23.49
2022-08-21T14:26:48.212Z,23.04
2022-08-21T14:29:18.379Z,23.16
2022-08-21T14:31:53.165Z,22.97
2022-08-21T14:34:22.882Z,23.58
2022-08-21T14:36:52.134Z,24.66
2022-08-21T14:39:20.458Z,25.93
2022-08-21T14:41:51.088Z,24.88
2022-08-21T14:44:20.504Z,24.57
2022-08-21T14:46:55.212Z,24.86
2022-08-21T14:49:27.026Z,24.45
2022-08-21T14:51:58.112Z,23.74
2022-08-21T14:54:28.161Z,22.98
2022-08-21T14:57:02.693Z,23.35
2022-08-21T14:59:31.304Z,23.93
2022-08-21T15:01:59.344Z,23.87
2022-08-21T15:04:27.396Z,23.58
2022-08-21T15:06:55.441Z,23.35
2022-08-21T15:09:24.672Z,23.88
2022-08-21T15:11:53.473Z,23.83
2022-08-21T15:14:27.191Z,23.82
2022-08-21T15:16:55.578Z,23.55
2022-08-21T15:19:23.902Z,24.04
2022-08-21T15:21:52.052Z,23.50
2022-08-21T15:24:20.117Z,24.25
2022-08-21T15:26:48.825Z,23.97
2022-08-21T15:29:20.759Z,24.33
2022-08-21T15:31:58.145Z,25.34
2022-08-21T15:34:28.153Z,25.55
2022-08-21T15:36:57.260Z,25.79
2022-08-21T15:39:30.345Z,25.02
2022-08-21T15:42:02.684Z,24.96
2022-08-21T15:44:40.791Z,25.48
2022-08-21T15:47:14.235Z,25.82
2022-08-21T15:49:45.834Z,26.48
2022-08-21T15:52:14.524Z,27.00
2022-08-21T15:54:42.873Z,26.82
2022-08-21T15:57:13.732Z,27.35
2022-08-21T15:59:43.558Z,27.19
2022-08-21T16:02:16.571Z,26.55
2022-08-21T16:04:44.830Z,27.32
2022-08-21T16:07:13.310Z,26.31
2022-08-21T16:09:41.568Z,26.71
2022-08-21T16:12:12.981Z,26.76
2022-08-21T16:14:41.280Z,27.06
2022-08-21T16:17:09.886Z,27.42
2022-08-21T16:19:39.598Z,27.29
2022-08-21T16:22:07.628Z,27.79
2022-08-21T16:24:36.461Z,27.82
2022-08-21T16:27:08.116Z,27.49
2022-08-21T16:29:38.948Z,28.13
2022-08-21T16:32:08.859Z,28.81
2022-08-21T16:34:37.665Z,28.33
2022-08-21T16:37:07.143Z,28.54
2022-08-21T16:39:35.295Z,28.88
2022-08-21T16:42:03.880Z,28.28
2022-08-21T16:44:32.601Z,28.66
2022-08-21T16:47:01.098Z,29.50
2022-08-21T16:49:29.431Z,29.56
2022-08-21T16:51:57.493Z,29.02
2022-08-21T16:54:27.016Z,29.11
2022-08-21T16:56:55.330Z,29.48
2022-08-21T16:59:23.427Z,29.62
2022-08-21T17:01:54.178Z,30.08
2022-08-21T17:04:22.619Z,29.63
2022-08-21T17:06:50.655Z,30.47
2022-08-21T17:09:19.195Z,30.33
2022-08-21T17:11:50.301Z,30.36
2022-08-21T17:14:21.247Z,30.99
2022-08-21T17:16:52.139Z,30.67
2022-08-21T17:19:21.235Z,31.43
2022-08-21T17:21:49.330Z,31.47
2022-08-21T17:24:17.496Z,31.38
2022-08-21T17:26:46.488Z,32.00
2022-08-21T17:29:16.749Z,32.83
2022-08-21T17:31:45.599Z,33.12
2022-08-21T17:34:16.164Z,32.65
2022-08-21T17:36:44.174Z,33.14
2022-08-21T17:39:12.990Z,34.90
2022-08-21T17:41:46.503Z,35.11
2022-08-21T17:44:19.621Z,35.90
2022-08-21T17:46:47.951Z,36.62
2022-08-21T17:49:15.992Z,38.02
2022-08-21T17:51:44.604Z,38.47
2022-08-21T17:54:12.680Z,39.85
2022-08-21T17:56:42.946Z,40.18
2022-08-21T17:59:11.820Z,42.12
2022-08-21T18:01:43.825Z,42.71
2022-08-21T18:04:12.611Z,42.88
2022-08-21T18:06:41.305Z,42.26
2022-08-21T18:09:09.957Z,42.25
2022-08-21T18:11:38.422Z,42.72
2022-08-21T18:14:08.161Z,43.49
2022-08-21T18:16:37.552Z,44.39
2022-08-21T18:19:11.747Z,44.84
2022-08-21T18:21:39.765Z,44.72
2022-08-21T18:24:08.126Z,45.04
2022-08-21T18:26:40.245Z,45.16
2022-08-21T18:29:10.959Z,45.09
2022-08-21T18:31:40.863Z,45.61
2022-08-21T18:34:21.557Z,45.75
2022-08-21T18:36:49.673Z,45.98
2022-08-21T18:42:11.538Z,46.29
2022-08-21T18:44:41.112Z,47.25
2022-08-21T18:47:11.527Z,47.15
2022-08-21T18:49:42.436Z,47.49
2022-08-21T18:52:10.747Z,47.02
2022-08-21T18:54:45.968Z,47.86
2022-08-21T18:57:18.705Z,48.03
2022-08-21T18:59:46.827Z,47.84
2022-08-21T19:02:16.153Z,47.58
2022-08-21T19:04:46.913Z,48.31
2022-08-21T19:07:17.026Z,48.42
2022-08-21T19:09:57.226Z,49.78
2022-08-21T19:12:34.468Z,50.11
2022-08-21T19:15:03.342Z,50.64
2022-08-21T19:17:31.884Z,51.00
2022-08-21T19:20:07.118Z,51.02
2022-08-21T19:22:35.242Z,51.81
2022-08-21T19:25:05.263Z,53.03
2022-08-21T19:27:35.048Z,52.32
2022-08-21T19:30:04.367Z,53.27
2022-08-21T19:32:32.737Z,53.20
2022-08-21T19:35:04.125Z,53.39
2022-08-21T19:37:32.225Z,54.32
2022-08-21T19:40:03.924Z,54.79
2022-08-21T19:42:32.273Z,55.13
2022-08-21T19:45:00.687Z,55.50
2022-08-21T19:47:31.245Z,56.48
2022-08-21T19:50:03.335Z,56.68
2022-08-21T19:52:35.631Z,56.76
2022-08-21T19:55:04.479Z,57.47
2022-08-21T19:57:34.019Z,56.52
2022-08-21T20:00:03.057Z,56.40
2022-08-21T20:02:35.683Z,56.35
2022-08-21T20:05:06.100Z,56.12
2022-08-21T20:07:38.174Z,55.89
2022-08-21T20:10:07.420Z,56.27
2022-08-21T20:12:39.195Z,56.80
2022-08-21T20:15:08.701Z,57.17
2022-08-21T20:17:38.651Z,56.73
2022-08-21T20:20:07.693Z,56.62
2022-08-21T20:22:35.890Z,56.85
2022-08-21T20:25:05.861Z,57.73
2022-08-21T20:27:40.308Z,58.55
2022-08-21T20:30:10.702Z,58.58
2022-08-21T20:32:39.038Z,57.84
2022-08-21T20:35:13.552Z,58.39
2022-08-21T20:37:41.996Z,60.23
2022-08-21T20:40:14.498Z,63.76
2022-08-21T20:42:47.201Z,64.62
2022-08-21T20:45:20.662Z,65.34
2022-08-21T20:47:52.700Z,64.92
2022-08-21T20:50:25.663Z,65.90
2022-08-21T20:52:57.037Z,67.28
2022-08-21T20:55:29.577Z,68.15
2022-08-21T20:58:02.872Z,67.97
2022-08-21T21:00:35.886Z,70.41
2022-08-21T21:03:12.972Z,71.95
2022-08-21T21:05:48.178Z,73.84
2022-08-21T21:08:22.619Z,74.67
2022-08-21T21:10:58.380Z,76.74
2022-08-21T21:13:35.185Z,76.76
2022-08-21T21:16:07.487Z,77.25
2022-08-21T21:18:43.767Z,77.52
2022-08-21T21:21:21.322Z,78.28
2022-08-21T21:24:00.933Z,79.44
2022-08-21T21:26:35.439Z,78.58
2022-08-21T21:29:10.855Z,79.25
2022-08-21T21:31:39.373Z,79.20
2022-08-21T21:34:07.699Z,78.56
2022-08-21T21:36:56.403Z,78.38
2022-08-21T21:39:47.353Z,77.50
2022-08-21T21:42:32.320Z,76.38
2022-08-21T21:45:16.081Z,76.32
2022-08-21T21:48:04.127Z,76.44
2022-08-21T21:50:45.413Z,77.14
2022-08-21T21:53:31.971Z,79.04
2022-08-21T21:56:16.546Z,79.16
2022-08-21T21:59:06.418Z,83.08
2022-08-21T22:01:44.567Z,85.19
2022-08-21T22:04:22.280Z,85.66
2022-08-21T22:06:56.391Z,85.61
2022-08-21T22:09:39.176Z,90.86
2022-08-21T22:12:25.261Z,89.21
2022-08-21T22:14:54.815Z,90.76
2022-08-21T22:17:34.110Z,90.15
2022-08-21T22:20:05.851Z,94.20
2022-08-21T22:22:35.054Z,94.38
2022-08-21T22:25:08.865Z,98.09
2022-08-21T22:27:40.847Z,98.99
2022-08-21T22:30:16.310Z,97.78
2022-08-21T22:32:49.023Z,95.64
2022-08-21T22:35:21.126Z,91.21
2022-08-21T22:37:51.354Z,87.97
2022-08-21T22:40:26.378Z,86.69
2022-08-21T22:43:00.580Z,88.65
2022-08-21T22:45:34.063Z,88.42
2022-08-21T22:48:11.063Z,89.59
2022-08-21T22:50:42.692Z,86.38
2022-08-21T22:53:11.333Z,83.85
2022-08-21T22:55:43.792Z,85.52
2022-08-21T22:58:14.682Z,87.30
2022-08-21T23:00:51.467Z,88.59
2022-08-21T23:03:32.589Z,90.15
2022-08-21T23:06:03.152Z,90.83
2022-08-21T23:08:41.302Z,92.55
2022-08-21T23:11:15.078Z,93.17
2022-08-21T23:13:47.155Z,93.03
2022-08-21T23:16:30.922Z,92.08
2022-08-21T23:19:12.939Z,93.39
2022-08-21T23:21:52.699Z,98.65
2022-08-21T23:24:39.224Z,96.38
2022-08-21T23:27:32.030Z,95.60
2022-08-21T23:30:10.308Z,94.62
2022-08-21T23:33:12.490Z,88.51
2022-08-21T23:36:04.575Z,85.07
2022-08-21T23:38:43.006Z,87.40
2022-08-21T23:41:34.370Z,87.39
2022-08-21T23:44:13.033Z,90.57
2022-08-21T23:46:53.777Z,89.70
2022-08-21T23:49:36.660Z,89.85
2022-08-21T23:52:20.962Z,90.66
2022-08-21T23:55:03.989Z,89.72
2022-08-21T23:57:48.172Z,90.66
